sensor_id;sensor_type;location;lat;lon;timestamp;P1;durP1;ratioP1;P2;durP2;ratioP2
14235;SDS011;7202;50.718;7.072;2022-07-09T00:02:07;3.17;;;2.30;;
14235;SDS011;7202;50.718;7.072;2022-07-09T00:04:36;3.63;;;2.13;;
14235;SDS011;7202;50.718;7.072;2022-07-09T00:07:05;5.18;;;2.55;;
14235;SDS011;7202;50.718;7.072;2022-07-09T00:09:35;4.32;;;2.63;;
14235;SDS011;7202;50.718;7.072;2022-07-09T00:12:04;2.85;;;2.08;;
14235;SDS011;7202;50.718;7.072;2022-07-09T00:14:33;2.97;;;2.15;;
14235;SDS011;7202;50.718;7.072;2022-07-09T00:17:02;5.10;;;2.40;;
14235;SDS011;7202;50.718;7.072;2022-07-09T00:19:31;7.05;;;2.25;;
14235;SDS011;7202;50.718;7.072;2022-07-09T00:21:59;6.43;;;2.80;;
14235;SDS011;7202;50.718;7.072;2022-07-09T00:24:28;2.53;;;2.13;;
14235;SDS011;7202;50.718;7.072;2022-07-09T00:26:58;5.28;;;2.70;;
14235;SDS011;7202;50.718;7.072;2022-07-09T00:29:27;4.30;;;2.25;;
14235;SDS011;7202;50.718;7.072;2022-07-09T00:31:55;4.68;;;2.90;;
14235;SDS011;7202;50.718;7.072;2022-07-09T00:34:24;5.30;;;2.88;;
14235;SDS011;7202;50.718;7.072;2022-07-09T00:36:52;5.38;;;2.50;;
14235;SDS011;7202;50.718;7.072;2022-07-09T00:39:21;3.10;;;2.15;;
14235;SDS011;7202;50.718;7.072;2022-07-09T00:41:49;4.18;;;2.20;;
14235;SDS011;7202;50.718;7.072;2022-07-09T00:44:20;6.20;;;2.50;;
14235;SDS011;7202;50.718;7.072;2022-07-09T00:46:48;3.35;;;2.17;;
14235;SDS011;7202;50.718;7.072;2022-07-09T00:49:17;2.88;;;2.55;;
14235;SDS011;7202;50.718;7.072;2022-07-09T00:51:45;3.28;;;2.17;;
14235;SDS011;7202;50.718;7.072;2022-07-09T00:54:15;3.28;;;2.40;;
14235;SDS011;7202;50.718;7.072;2022-07-09T00:56:44;5.03;;;1.98;;
14235;SDS011;7202;50.718;7.072;2022-07-09T00:59:13;5.53;;;2.42;;
14235;SDS011;7202;50.718;7.072;2022-07-09T01:01:44;2.72;;;2.10;;
14235;SDS011;7202;50.718;7.072;2022-07-09T01:04:13;2.85;;;2.08;;
14235;SDS011;7202;50.718;7.072;2022-07-09T01:06:41;3.15;;;2.38;;
14235;SDS011;7202;50.718;7.072;2022-07-09T01:09:10;3.65;;;2.17;;
14235;SDS011;7202;50.718;7.072;2022-07-09T01:11:40;3.40;;;2.10;;
14235;SDS011;7202;50.718;7.072;2022-07-09T01:14:08;4.15;;;2.45;;
14235;SDS011;7202;50.718;7.072;2022-07-09T01:16:37;4.50;;;2.15;;
14235;SDS011;7202;50.718;7.072;2022-07-09T01:19:07;4.13;;;2.50;;
14235;SDS011;7202;50.718;7.072;2022-07-09T01:21:37;4.82;;;2.42;;
14235;SDS011;7202;50.718;7.072;2022-07-09T01:24:06;3.05;;;2.28;;
14235;SDS011;7202;50.718;7.072;2022-07-09T01:26:35;2.42;;;2.22;;
14235;SDS011;7202;50.718;7.072;2022-07-09T01:29:04;6.22;;;2.38;;
14235;SDS011;7202;50.718;7.072;2022-07-09T01:31:32;4.07;;;2.33;;
14235;SDS011;7202;50.718;7.072;2022-07-09T01:34:01;2.92;;;2.13;;
14235;SDS011;7202;50.718;7.072;2022-07-09T01:36:30;4.40;;;2.40;;
14235;SDS011;7202;50.718;7.072;2022-07-09T01:38:59;4.00;;;2.60;;
14235;SDS011;7202;50.718;7.072;2022-07-09T01:41:28;6.35;;;2.70;;
14235;SDS011;7202;50.718;7.072;2022-07-09T01:43:57;4.60;;;2.70;;
14235;SDS011;7202;50.718;7.072;2022-07-09T01:46:26;2.65;;;2.22;;
14235;SDS011;7202;50.718;7.072;2022-07-09T01:48:54;3.20;;;2.55;;
14235;SDS011;7202;50.718;7.072;2022-07-09T01:51:23;3.92;;;2.80;;
14235;SDS011;7202;50.718;7.072;2022-07-09T01:53:52;4.22;;;2.67;;
14235;SDS011;7202;50.718;7.072;2022-07-09T01:56:22;3.35;;;2.60;;
14235;SDS011;7202;50.718;7.072;2022-07-09T01:58:50;4.30;;;2.60;;
14235;SDS011;7202;50.718;7.072;2022-07-09T02:01:19;2.88;;;2.58;;
14235;SDS011;7202;50.718;7.072;2022-07-09T02:03:48;4.57;;;2.75;;
14235;SDS011;7202;50.718;7.072;2022-07-09T02:06:17;3.15;;;2.53;;
14235;SDS011;7202;50.718;7.072;2022-07-09T02:08:46;3.55;;;2.60;;
14235;SDS011;7202;50.718;7.072;2022-07-09T02:11:14;3.35;;;2.65;;
14235;SDS011;7202;50.718;7.072;2022-07-09T02:13:44;3.80;;;2.45;;
14235;SDS011;7202;50.718;7.072;2022-07-09T02:16:13;4.85;;;2.85;;
14235;SDS011;7202;50.718;7.072;2022-07-09T02:18:42;3.03;;;2.50;;
14235;SDS011;7202;50.718;7.072;2022-07-09T02:21:11;4.57;;;2.60;;
14235;SDS011;7202;50.718;7.072;2022-07-09T02:23:40;3.15;;;2.45;;
14235;SDS011;7202;50.718;7.072;2022-07-09T02:26:08;5.38;;;2.55;;
14235;SDS011;7202;50.718;7.072;2022-07-09T02:28:37;3.13;;;2.83;;
14235;SDS011;7202;50.718;7.072;2022-07-09T02:31:07;4.75;;;2.80;;
14235;SDS011;7202;50.718;7.072;2022-07-09T02:33:36;3.22;;;2.60;;
14235;SDS011;7202;50.718;7.072;2022-07-09T02:36:04;4.25;;;2.30;;
14235;SDS011;7202;50.718;7.072;2022-07-09T02:38:33;5.85;;;2.92;;
14235;SDS011;7202;50.718;7.072;2022-07-09T02:41:02;3.90;;;2.65;;
14235;SDS011;7202;50.718;7.072;2022-07-09T02:43:31;3.10;;;2.25;;
14235;SDS011;7202;50.718;7.072;2022-07-09T02:46:00;5.90;;;3.53;;
14235;SDS011;7202;50.718;7.072;2022-07-09T02:48:32;4.45;;;2.67;;
14235;SDS011;7202;50.718;7.072;2022-07-09T02:51:01;4.00;;;2.78;;
14235;SDS011;7202;50.718;7.072;2022-07-09T02:53:30;4.90;;;2.75;;
14235;SDS011;7202;50.718;7.072;2022-07-09T02:55:59;4.90;;;2.90;;
14235;SDS011;7202;50.718;7.072;2022-07-09T02:58:27;3.80;;;3.15;;
14235;SDS011;7202;50.718;7.072;2022-07-09T03:00:56;4.88;;;2.92;;
14235;SDS011;7202;50.718;7.072;2022-07-09T03:03:25;5.47;;;3.03;;
14235;SDS011;7202;50.718;7.072;2022-07-09T03:05:55;4.28;;;2.85;;
14235;SDS011;7202;50.718;7.072;2022-07-09T03:08:24;5.50;;;3.08;;
14235;SDS011;7202;50.718;7.072;2022-07-09T03:10:52;3.60;;;2.92;;
14235;SDS011;7202;50.718;7.072;2022-07-09T03:13:21;3.50;;;2.95;;
14235;SDS011;7202;50.718;7.072;2022-07-09T03:15:49;7.38;;;3.20;;
14235;SDS011;7202;50.718;7.072;2022-07-09T03:18:18;5.70;;;2.90;;
14235;SDS011;7202;50.718;7.072;2022-07-09T03:20:47;4.38;;;2.78;;
14235;SDS011;7202;50.718;7.072;2022-07-09T03:23:17;4.75;;;2.88;;
14235;SDS011;7202;50.718;7.072;2022-07-09T03:25:45;4.03;;;2.80;;
14235;SDS011;7202;50.718;7.072;2022-07-09T03:28:14;4.55;;;3.42;;
14235;SDS011;7202;50.718;7.072;2022-07-09T03:30:43;4.13;;;3.38;;
14235;SDS011;7202;50.718;7.072;2022-07-09T03:33:11;5.57;;;2.75;;
14235;SDS011;7202;50.718;7.072;2022-07-09T03:35:40;4.53;;;3.33;;
14235;SDS011;7202;50.718;7.072;2022-07-09T03:38:09;4.00;;;3.00;;
14235;SDS011;7202;50.718;7.072;2022-07-09T03:40:39;4.75;;;3.45;;
14235;SDS011;7202;50.718;7.072;2022-07-09T03:43:07;4.05;;;2.67;;
14235;SDS011;7202;50.718;7.072;2022-07-09T03:45:36;5.82;;;3.03;;
14235;SDS011;7202;50.718;7.072;2022-07-09T03:48:05;4.50;;;3.15;;
14235;SDS011;7202;50.718;7.072;2022-07-09T03:50:34;4.07;;;3.00;;
14235;SDS011;7202;50.718;7.072;2022-07-09T03:53:03;5.53;;;3.60;;
14235;SDS011;7202;50.718;7.072;2022-07-09T03:55:32;4.40;;;3.40;;
14235;SDS011;7202;50.718;7.072;2022-07-09T03:58:02;6.45;;;3.30;;
14235;SDS011;7202;50.718;7.072;2022-07-09T04:00:31;4.32;;;3.35;;
14235;SDS011;7202;50.718;7.072;2022-07-09T04:03:00;4.25;;;3.40;;
14235;SDS011;7202;50.718;7.072;2022-07-09T04:05:28;4.88;;;3.15;;
14235;SDS011;7202;50.718;7.072;2022-07-09T04:07:57;4.70;;;3.30;;
14235;SDS011;7202;50.718;7.072;2022-07-09T04:10:26;5.55;;;3.65;;
14235;SDS011;7202;50.718;7.072;2022-07-09T04:12:54;5.68;;;3.10;;
14235;SDS011;7202;50.718;7.072;2022-07-09T04:15:24;3.30;;;2.60;;
14235;SDS011;7202;50.718;7.072;2022-07-09T04:17:53;4.30;;;3.17;;
14235;SDS011;7202;50.718;7.072;2022-07-09T04:20:22;3.22;;;2.80;;
14235;SDS011;7202;50.718;7.072;2022-07-09T04:22:52;5.38;;;2.90;;
14235;SDS011;7202;50.718;7.072;2022-07-09T04:25:21;5.70;;;3.38;;
14235;SDS011;7202;50.718;7.072;2022-07-09T04:27:49;4.35;;;3.42;;
14235;SDS011;7202;50.718;7.072;2022-07-09T04:30:18;3.40;;;3.00;;
14235;SDS011;7202;50.718;7.072;2022-07-09T04:32:48;7.07;;;3.30;;
14235;SDS011;7202;50.718;7.072;2022-07-09T04:35:17;3.55;;;3.22;;
14235;SDS011;7202;50.718;7.072;2022-07-09T04:37:45;4.72;;;2.90;;
14235;SDS011;7202;50.718;7.072;2022-07-09T04:40:14;5.45;;;3.80;;
14235;SDS011;7202;50.718;7.072;2022-07-09T04:42:43;5.40;;;3.15;;
14235;SDS011;7202;50.718;7.072;2022-07-09T04:45:11;5.65;;;3.15;;
14235;SDS011;7202;50.718;7.072;2022-07-09T04:47:40;4.70;;;3.00;;
14235;SDS011;7202;50.718;7.072;2022-07-09T04:50:10;3.85;;;3.17;;
14235;SDS011;7202;50.718;7.072;2022-07-09T04:52:39;4.32;;;2.95;;
14235;SDS011;7202;50.718;7.072;2022-07-09T04:55:08;2.65;;;2.35;;
14235;SDS011;7202;50.718;7.072;2022-07-09T04:57:38;3.10;;;2.78;;
14235;SDS011;7202;50.718;7.072;2022-07-09T05:00:07;8.40;;;3.00;;
14235;SDS011;7202;50.718;7.072;2022-07-09T05:02:37;4.80;;;3.35;;
14235;SDS011;7202;50.718;7.072;2022-07-09T05:05:07;3.90;;;3.38;;
14235;SDS011;7202;50.718;7.072;2022-07-09T05:07:37;4.88;;;3.20;;
14235;SDS011;7202;50.718;7.072;2022-07-09T05:10:06;6.38;;;3.10;;
14235;SDS011;7202;50.718;7.072;2022-07-09T05:12:35;4.25;;;3.30;;
14235;SDS011;7202;50.718;7.072;2022-07-09T05:15:06;4.45;;;3.13;;
14235;SDS011;7202;50.718;7.072;2022-07-09T05:17:35;3.58;;;2.78;;
14235;SDS011;7202;50.718;7.072;2022-07-09T05:20:06;2.80;;;2.58;;
14235;SDS011;7202;50.718;7.072;2022-07-09T05:22:37;3.03;;;2.72;;
14235;SDS011;7202;50.718;7.072;2022-07-09T05:25:06;3.78;;;2.88;;
14235;SDS011;7202;50.718;7.072;2022-07-09T05:27:40;3.80;;;2.90;;
14235;SDS011;7202;50.718;7.072;2022-07-09T05:30:10;6.15;;;3.42;;
14235;SDS011;7202;50.718;7.072;2022-07-09T05:32:45;4.03;;;2.90;;
14235;SDS011;7202;50.718;7.072;2022-07-09T05:35:14;3.30;;;2.70;;
14235;SDS011;7202;50.718;7.072;2022-07-09T05:37:46;5.15;;;3.38;;
14235;SDS011;7202;50.718;7.072;2022-07-09T05:40:14;5.30;;;3.38;;
14235;SDS011;7202;50.718;7.072;2022-07-09T05:42:43;3.13;;;2.83;;
14235;SDS011;7202;50.718;7.072;2022-07-09T05:45:11;5.68;;;3.40;;
14235;SDS011;7202;50.718;7.072;2022-07-09T05:47:40;5.85;;;3.67;;
14235;SDS011;7202;50.718;7.072;2022-07-09T05:50:09;4.13;;;2.88;;
14235;SDS011;7202;50.718;7.072;2022-07-09T05:52:38;6.72;;;3.50;;
14235;SDS011;7202;50.718;7.072;2022-07-09T05:55:08;6.40;;;3.90;;
14235;SDS011;7202;50.718;7.072;2022-07-09T05:57:37;4.50;;;4.10;;
14235;SDS011;7202;50.718;7.072;2022-07-09T06:00:06;8.00;;;4.15;;
14235;SDS011;7202;50.718;7.072;2022-07-09T06:02:36;5.15;;;3.83;;
14235;SDS011;7202;50.718;7.072;2022-07-09T06:05:04;5.68;;;3.88;;
14235;SDS011;7202;50.718;7.072;2022-07-09T06:07:33;6.47;;;4.13;;
14235;SDS011;7202;50.718;7.072;2022-07-09T06:10:02;11.95;;;3.90;;
14235;SDS011;7202;50.718;7.072;2022-07-09T06:12:32;5.00;;;4.50;;
14235;SDS011;7202;50.718;7.072;2022-07-09T06:15:02;7.57;;;5.72;;
14235;SDS011;7202;50.718;7.072;2022-07-09T06:17:32;8.10;;;6.57;;
14235;SDS011;7202;50.718;7.072;2022-07-09T06:20:00;7.35;;;5.80;;
14235;SDS011;7202;50.718;7.072;2022-07-09T06:22:29;7.57;;;4.68;;
14235;SDS011;7202;50.718;7.072;2022-07-09T06:24:57;7.47;;;4.47;;
14235;SDS011;7202;50.718;7.072;2022-07-09T06:27:26;9.57;;;5.90;;
14235;SDS011;7202;50.718;7.072;2022-07-09T06:29:57;11.60;;;5.28;;
14235;SDS011;7202;50.718;7.072;2022-07-09T06:32:26;5.65;;;4.82;;
14235;SDS011;7202;50.718;7.072;2022-07-09T06:34:54;7.88;;;5.35;;
14235;SDS011;7202;50.718;7.072;2022-07-09T06:37:23;7.75;;;4.38;;
14235;SDS011;7202;50.718;7.072;2022-07-09T06:39:52;7.45;;;4.80;;
14235;SDS011;7202;50.718;7.072;2022-07-09T06:42:22;5.90;;;4.75;;
14235;SDS011;7202;50.718;7.072;2022-07-09T06:45:00;6.45;;;4.53;;
14235;SDS011;7202;50.718;7.072;2022-07-09T06:47:29;5.13;;;4.13;;
14235;SDS011;7202;50.718;7.072;2022-07-09T06:49:57;7.03;;;4.90;;
14235;SDS011;7202;50.718;7.072;2022-07-09T06:52:26;7.03;;;5.35;;
14235;SDS011;7202;50.718;7.072;2022-07-09T06:54:55;11.15;;;6.40;;
14235;SDS011;7202;50.718;7.072;2022-07-09T06:57:23;7.68;;;5.60;;
14235;SDS011;7202;50.718;7.072;2022-07-09T06:59:52;7.13;;;5.28;;
14235;SDS011;7202;50.718;7.072;2022-07-09T07:02:22;6.65;;;5.30;;
14235;SDS011;7202;50.718;7.072;2022-07-09T07:04:51;11.10;;;6.15;;
14235;SDS011;7202;50.718;7.072;2022-07-09T07:07:20;7.88;;;5.00;;
14235;SDS011;7202;50.718;7.072;2022-07-09T07:09:48;7.85;;;5.10;;
14235;SDS011;7202;50.718;7.072;2022-07-09T07:12:17;13.00;;;5.68;;
14235;SDS011;7202;50.718;7.072;2022-07-09T07:14:46;9.75;;;6.20;;
14235;SDS011;7202;50.718;7.072;2022-07-09T07:17:14;9.23;;;6.68;;
14235;SDS011;7202;50.718;7.072;2022-07-09T07:19:44;9.20;;;5.38;;
14235;SDS011;7202;50.718;7.072;2022-07-09T07:22:13;11.85;;;8.02;;
14235;SDS011;7202;50.718;7.072;2022-07-09T07:24:42;10.93;;;5.95;;
14235;SDS011;7202;50.718;7.072;2022-07-09T07:27:10;7.55;;;6.00;;
14235;SDS011;7202;50.718;7.072;2022-07-09T07:29:39;7.55;;;5.80;;
14235;SDS011;7202;50.718;7.072;2022-07-09T07:32:08;7.70;;;5.78;;
14235;SDS011;7202;50.718;7.072;2022-07-09T07:34:37;8.70;;;6.35;;
14235;SDS011;7202;50.718;7.072;2022-07-09T07:37:07;10.30;;;5.35;;
14235;SDS011;7202;50.718;7.072;2022-07-09T07:39:35;11.02;;;5.13;;
14235;SDS011;7202;50.718;7.072;2022-07-09T07:42:04;8.95;;;5.85;;
14235;SDS011;7202;50.718;7.072;2022-07-09T07:44:34;9.40;;;5.85;;
14235;SDS011;7202;50.718;7.072;2022-07-09T07:47:02;6.00;;;5.38;;
14235;SDS011;7202;50.718;7.072;2022-07-09T07:49:31;7.60;;;5.03;;
14235;SDS011;7202;50.718;7.072;2022-07-09T07:52:00;9.48;;;4.47;;
14235;SDS011;7202;50.718;7.072;2022-07-09T07:54:33;4.45;;;3.67;;
14235;SDS011;7202;50.718;7.072;2022-07-09T07:57:03;4.00;;;3.40;;
14235;SDS011;7202;50.718;7.072;2022-07-09T07:59:32;4.95;;;3.45;;
14235;SDS011;7202;50.718;7.072;2022-07-09T08:02:00;9.90;;;4.43;;
14235;SDS011;7202;50.718;7.072;2022-07-09T08:04:29;6.43;;;3.55;;
14235;SDS011;7202;50.718;7.072;2022-07-09T08:06:58;5.10;;;3.83;;
14235;SDS011;7202;50.718;7.072;2022-07-09T08:09:27;5.00;;;3.50;;
14235;SDS011;7202;50.718;7.072;2022-07-09T08:11:58;3.88;;;2.88;;
14235;SDS011;7202;50.718;7.072;2022-07-09T08:14:27;5.20;;;3.28;;
14235;SDS011;7202;50.718;7.072;2022-07-09T08:16:55;3.35;;;2.65;;
14235;SDS011;7202;50.718;7.072;2022-07-09T08:19:24;3.95;;;2.88;;
14235;SDS011;7202;50.718;7.072;2022-07-09T08:21:59;4.68;;;3.63;;
14235;SDS011;7202;50.718;7.072;2022-07-09T08:24:27;6.20;;;4.55;;
14235;SDS011;7202;50.718;7.072;2022-07-09T08:26:57;6.68;;;3.97;;
14235;SDS011;7202;50.718;7.072;2022-07-09T08:29:26;7.00;;;4.15;;
14235;SDS011;7202;50.718;7.072;2022-07-09T08:31:55;5.60;;;3.72;;
14235;SDS011;7202;50.718;7.072;2022-07-09T08:34:23;5.65;;;4.15;;
14235;SDS011;7202;50.718;7.072;2022-07-09T08:36:53;6.70;;;3.78;;
14235;SDS011;7202;50.718;7.072;2022-07-09T08:39:21;3.53;;;3.03;;
14235;SDS011;7202;50.718;7.072;2022-07-09T08:41:50;4.80;;;3.53;;
14235;SDS011;7202;50.718;7.072;2022-07-09T08:44:25;4.13;;;3.15;;
14235;SDS011;7202;50.718;7.072;2022-07-09T08:46:56;3.45;;;3.15;;
14235;SDS011;7202;50.718;7.072;2022-07-09T08:49:26;4.25;;;2.70;;
14235;SDS011;7202;50.718;7.072;2022-07-09T08:51:56;2.72;;;2.53;;
14235;SDS011;7202;50.718;7.072;2022-07-09T08:54:25;2.53;;;2.13;;
14235;SDS011;7202;50.718;7.072;2022-07-09T08:56:55;4.40;;;2.63;;
14235;SDS011;7202;50.718;7.072;2022-07-09T08:59:25;4.10;;;2.90;;
14235;SDS011;7202;50.718;7.072;2022-07-09T09:01:54;3.55;;;2.47;;
14235;SDS011;7202;50.718;7.072;2022-07-09T09:04:22;3.20;;;2.17;;
14235;SDS011;7202;50.718;7.072;2022-07-09T09:06:51;3.42;;;2.55;;
14235;SDS011;7202;50.718;7.072;2022-07-09T09:09:20;3.45;;;2.35;;
14235;SDS011;7202;50.718;7.072;2022-07-09T09:11:49;2.92;;;2.10;;
14235;SDS011;7202;50.718;7.072;2022-07-09T09:14:19;3.17;;;2.00;;
14235;SDS011;7202;50.718;7.072;2022-07-09T09:16:51;4.20;;;2.72;;
14235;SDS011;7202;50.718;7.072;2022-07-09T09:19:21;4.97;;;2.10;;
14235;SDS011;7202;50.718;7.072;2022-07-09T09:21:51;3.13;;;2.35;;
14235;SDS011;7202;50.718;7.072;2022-07-09T09:24:25;2.97;;;2.33;;
14235;SDS011;7202;50.718;7.072;2022-07-09T09:26:56;5.63;;;2.40;;
14235;SDS011;7202;50.718;7.072;2022-07-09T09:29:25;2.85;;;2.15;;
14235;SDS011;7202;50.718;7.072;2022-07-09T09:31:56;6.43;;;2.67;;
14235;SDS011;7202;50.718;7.072;2022-07-09T09:34:25;2.67;;;2.35;;
14235;SDS011;7202;50.718;7.072;2022-07-09T09:36:54;3.25;;;2.40;;
14235;SDS011;7202;50.718;7.072;2022-07-09T09:39:23;3.15;;;2.10;;
14235;SDS011;7202;50.718;7.072;2022-07-09T09:41:53;2.53;;;2.30;;
14235;SDS011;7202;50.718;7.072;2022-07-09T09:44:23;2.70;;;2.30;;
14235;SDS011;7202;50.718;7.072;2022-07-09T09:46:53;3.60;;;2.45;;
14235;SDS011;7202;50.718;7.072;2022-07-09T09:49:24;5.13;;;2.40;;
14235;SDS011;7202;50.718;7.072;2022-07-09T09:51:56;3.60;;;2.17;;
14235;SDS011;7202;50.718;7.072;2022-07-09T09:54:31;4.95;;;2.33;;
14235;SDS011;7202;50.718;7.072;2022-07-09T09:57:02;3.83;;;2.10;;
14235;SDS011;7202;50.718;7.072;2022-07-09T09:59:33;2.40;;;2.00;;
14235;SDS011;7202;50.718;7.072;2022-07-09T10:02:05;2.55;;;2.30;;
14235;SDS011;7202;50.718;7.072;2022-07-09T10:04:37;2.65;;;1.98;;
14235;SDS011;7202;50.718;7.072;2022-07-09T10:07:07;3.17;;;1.90;;
14235;SDS011;7202;50.718;7.072;2022-07-09T10:09:38;3.50;;;2.00;;
14235;SDS011;7202;50.718;7.072;2022-07-09T10:12:07;2.00;;;1.70;;
14235;SDS011;7202;50.718;7.072;2022-07-09T10:14:37;3.47;;;1.60;;
14235;SDS011;7202;50.718;7.072;2022-07-09T10:17:10;1.83;;;1.60;;
14235;SDS011;7202;50.718;7.072;2022-07-09T10:19:51;2.05;;;1.30;;
14235;SDS011;7202;50.718;7.072;2022-07-09T10:22:21;2.97;;;1.60;;
14235;SDS011;7202;50.718;7.072;2022-07-09T10:24:52;3.03;;;1.50;;
14235;SDS011;7202;50.718;7.072;2022-07-09T10:27:21;2.78;;;1.55;;
14235;SDS011;7202;50.718;7.072;2022-07-09T10:29:53;1.20;;;1.00;;
14235;SDS011;7202;50.718;7.072;2022-07-09T10:32:26;2.05;;;1.23;;
14235;SDS011;7202;50.718;7.072;2022-07-09T10:35:00;2.15;;;1.10;;
14235;SDS011;7202;50.718;7.072;2022-07-09T10:37:32;2.00;;;1.30;;
14235;SDS011;7202;50.718;7.072;2022-07-09T10:40:09;2.15;;;1.10;;
14235;SDS011;7202;50.718;7.072;2022-07-09T10:42:39;2.20;;;1.27;;
14235;SDS011;7202;50.718;7.072;2022-07-09T10:45:24;1.25;;;1.00;;
14235;SDS011;7202;50.718;7.072;2022-07-09T10:47:54;1.92;;;1.40;;
14235;SDS011;7202;50.718;7.072;2022-07-09T10:50:25;1.67;;;1.10;;
14235;SDS011;7202;50.718;7.072;2022-07-09T10:52:55;4.18;;;1.17;;
14235;SDS011;7202;50.718;7.072;2022-07-09T10:55:26;3.63;;;1.33;;
14235;SDS011;7202;50.718;7.072;2022-07-09T10:57:56;1.10;;;1.00;;
14235;SDS011;7202;50.718;7.072;2022-07-09T11:00:25;4.28;;;1.63;;
14235;SDS011;7202;50.718;7.072;2022-07-09T11:02:56;3.00;;;1.38;;
14235;SDS011;7202;50.718;7.072;2022-07-09T11:05:27;1.52;;;1.42;;
14235;SDS011;7202;50.718;7.072;2022-07-09T11:07:58;3.03;;;1.60;;
14235;SDS011;7202;50.718;7.072;2022-07-09T11:10:28;1.42;;;1.30;;
14235;SDS011;7202;50.718;7.072;2022-07-09T11:12:58;2.97;;;1.45;;
14235;SDS011;7202;50.718;7.072;2022-07-09T11:15:29;3.17;;;1.50;;
14235;SDS011;7202;50.718;7.072;2022-07-09T11:18:01;1.35;;;1.25;;
14235;SDS011;7202;50.718;7.072;2022-07-09T11:20:32;2.90;;;1.23;;
14235;SDS011;7202;50.718;7.072;2022-07-09T11:23:05;2.00;;;1.60;;
14235;SDS011;7202;50.718;7.072;2022-07-09T11:25:36;3.38;;;1.50;;
14235;SDS011;7202;50.718;7.072;2022-07-09T11:28:04;4.10;;;1.50;;
14235;SDS011;7202;50.718;7.072;2022-07-09T11:30:39;3.03;;;2.03;;
14235;SDS011;7202;50.718;7.072;2022-07-09T11:33:11;1.50;;;1.00;;
14235;SDS011;7202;50.718;7.072;2022-07-09T11:35:43;2.50;;;1.42;;
14235;SDS011;7202;50.718;7.072;2022-07-09T11:38:12;1.90;;;1.05;;
14235;SDS011;7202;50.718;7.072;2022-07-09T11:40:40;1.63;;;1.20;;
14235;SDS011;7202;50.718;7.072;2022-07-09T11:43:12;2.75;;;1.70;;
14235;SDS011;7202;50.718;7.072;2022-07-09T11:45:51;1.88;;;1.23;;
14235;SDS011;7202;50.718;7.072;2022-07-09T11:48:20;2.70;;;1.30;;
14235;SDS011;7202;50.718;7.072;2022-07-09T11:50:51;2.20;;;1.45;;
14235;SDS011;7202;50.718;7.072;2022-07-09T11:53:20;2.05;;;1.50;;
14235;SDS011;7202;50.718;7.072;2022-07-09T11:55:58;3.83;;;1.30;;
14235;SDS011;7202;50.718;7.072;2022-07-09T11:58:28;1.55;;;1.30;;
14235;SDS011;7202;50.718;7.072;2022-07-09T12:00:57;1.42;;;1.33;;
14235;SDS011;7202;50.718;7.072;2022-07-09T12:03:27;1.33;;;1.20;;
14235;SDS011;7202;50.718;7.072;2022-07-09T12:05:59;2.60;;;1.70;;
14235;SDS011;7202;50.718;7.072;2022-07-09T12:08:29;1.35;;;1.23;;
14235;SDS011;7202;50.718;7.072;2022-07-09T12:10:59;1.98;;;1.65;;
14235;SDS011;7202;50.718;7.072;2022-07-09T12:13:28;2.08;;;1.80;;
14235;SDS011;7202;50.718;7.072;2022-07-09T12:15:56;3.80;;;1.73;;
14235;SDS011;7202;50.718;7.072;2022-07-09T12:18:25;2.05;;;1.70;;
14235;SDS011;7202;50.718;7.072;2022-07-09T12:20:55;2.17;;;1.50;;
14235;SDS011;7202;50.718;7.072;2022-07-09T12:23:25;4.05;;;1.80;;
14235;SDS011;7202;50.718;7.072;2022-07-09T12:25:54;3.83;;;1.77;;
14235;SDS011;7202;50.718;7.072;2022-07-09T12:28:23;1.80;;;1.45;;
14235;SDS011;7202;50.718;7.072;2022-07-09T12:30:51;3.03;;;1.70;;
14235;SDS011;7202;50.718;7.072;2022-07-09T12:33:20;3.58;;;1.50;;
14235;SDS011;7202;50.718;7.072;2022-07-09T12:35:49;6.10;;;1.60;;
14235;SDS011;7202;50.718;7.072;2022-07-09T12:38:17;2.75;;;1.58;;
14235;SDS011;7202;50.718;7.072;2022-07-09T12:40:47;3.35;;;1.52;;
14235;SDS011;7202;50.718;7.072;2022-07-09T12:43:16;3.22;;;1.70;;
14235;SDS011;7202;50.718;7.072;2022-07-09T12:45:45;2.33;;;1.60;;
14235;SDS011;7202;50.718;7.072;2022-07-09T12:48:14;2.65;;;1.17;;
14235;SDS011;7202;50.718;7.072;2022-07-09T12:50:42;1.95;;;1.50;;
14235;SDS011;7202;50.718;7.072;2022-07-09T12:53:12;1.98;;;1.63;;
14235;SDS011;7202;50.718;7.072;2022-07-09T12:55:40;2.45;;;1.40;;
14235;SDS011;7202;50.718;7.072;2022-07-09T12:58:30;3.75;;;1.73;;
14235;SDS011;7202;50.718;7.072;2022-07-09T13:00:59;1.98;;;1.50;;
14235;SDS011;7202;50.718;7.072;2022-07-09T13:03:27;2.53;;;1.50;;
14235;SDS011;7202;50.718;7.072;2022-07-09T13:06:16;2.58;;;1.80;;
14235;SDS011;7202;50.718;7.072;2022-07-09T13:09:01;2.13;;;1.90;;
14235;SDS011;7202;50.718;7.072;2022-07-09T13:11:31;3.00;;;1.80;;
14235;SDS011;7202;50.718;7.072;2022-07-09T13:14:01;3.80;;;1.77;;
14235;SDS011;7202;50.718;7.072;2022-07-09T13:16:30;3.28;;;1.90;;
14235;SDS011;7202;50.718;7.072;2022-07-09T13:18:59;4.07;;;1.60;;
14235;SDS011;7202;50.718;7.072;2022-07-09T13:21:27;3.58;;;1.60;;
14235;SDS011;7202;50.718;7.072;2022-07-09T13:23:57;2.72;;;1.88;;
14235;SDS011;7202;50.718;7.072;2022-07-09T13:26:26;2.30;;;1.90;;
14235;SDS011;7202;50.718;7.072;2022-07-09T13:29:03;3.60;;;1.80;;
14235;SDS011;7202;50.718;7.072;2022-07-09T13:31:32;2.42;;;2.22;;
14235;SDS011;7202;50.718;7.072;2022-07-09T13:34:00;3.55;;;1.90;;
14235;SDS011;7202;50.718;7.072;2022-07-09T13:36:29;4.13;;;2.05;;
14235;SDS011;7202;50.718;7.072;2022-07-09T13:38:58;2.45;;;2.25;;
14235;SDS011;7202;50.718;7.072;2022-07-09T13:41:26;4.03;;;2.25;;
14235;SDS011;7202;50.718;7.072;2022-07-09T13:43:55;3.63;;;2.55;;
14235;SDS011;7202;50.718;7.072;2022-07-09T13:46:25;4.85;;;2.53;;
14235;SDS011;7202;50.718;7.072;2022-07-09T13:48:54;3.13;;;2.38;;
14235;SDS011;7202;50.718;7.072;2022-07-09T13:51:22;5.63;;;2.38;;
14235;SDS011;7202;50.718;7.072;2022-07-09T13:53:51;3.28;;;2.63;;
14235;SDS011;7202;50.718;7.072;2022-07-09T13:56:20;4.13;;;2.90;;
14235;SDS011;7202;50.718;7.072;2022-07-09T13:58:48;3.95;;;2.78;;
14235;SDS011;7202;50.718;7.072;2022-07-09T14:01:17;5.10;;;2.53;;
14235;SDS011;7202;50.718;7.072;2022-07-09T14:03:48;5.18;;;3.10;;
14235;SDS011;7202;50.718;7.072;2022-07-09T14:06:17;4.22;;;3.42;;
14235;SDS011;7202;50.718;7.072;2022-07-09T14:09:05;5.97;;;3.67;;
14235;SDS011;7202;50.718;7.072;2022-07-09T14:11:34;6.03;;;3.85;;
14235;SDS011;7202;50.718;7.072;2022-07-09T14:14:03;5.25;;;4.43;;
14235;SDS011;7202;50.718;7.072;2022-07-09T14:16:31;7.10;;;4.47;;
14235;SDS011;7202;50.718;7.072;2022-07-09T14:19:02;7.50;;;4.88;;
14235;SDS011;7202;50.718;7.072;2022-07-09T14:21:30;5.63;;;4.90;;
14235;SDS011;7202;50.718;7.072;2022-07-09T14:23:59;6.97;;;5.35;;
14235;SDS011;7202;50.718;7.072;2022-07-09T14:26:27;9.68;;;5.60;;
14235;SDS011;7202;50.718;7.072;2022-07-09T14:28:56;7.57;;;6.05;;
14235;SDS011;7202;50.718;7.072;2022-07-09T14:31:27;8.90;;;6.43;;
14235;SDS011;7202;50.718;7.072;2022-07-09T14:33:56;9.80;;;6.07;;
14235;SDS011;7202;50.718;7.072;2022-07-09T14:36:26;6.75;;;6.07;;
14235;SDS011;7202;50.718;7.072;2022-07-09T14:38:54;6.55;;;5.88;;
14235;SDS011;7202;50.718;7.072;2022-07-09T14:41:23;8.10;;;5.93;;
14235;SDS011;7202;50.718;7.072;2022-07-09T14:43:52;6.55;;;5.90;;
14235;SDS011;7202;50.718;7.072;2022-07-09T14:46:21;8.88;;;6.63;;
14235;SDS011;7202;50.718;7.072;2022-07-09T14:48:50;8.50;;;7.15;;
14235;SDS011;7202;50.718;7.072;2022-07-09T14:51:18;8.50;;;7.70;;
14235;SDS011;7202;50.718;7.072;2022-07-09T14:53:48;9.73;;;8.15;;
14235;SDS011;7202;50.718;7.072;2022-07-09T14:56:17;11.75;;;10.55;;
14235;SDS011;7202;50.718;7.072;2022-07-09T14:58:46;11.38;;;9.02;;
14235;SDS011;7202;50.718;7.072;2022-07-09T15:01:15;9.63;;;8.77;;
14235;SDS011;7202;50.718;7.072;2022-07-09T15:03:43;13.48;;;12.10;;
14235;SDS011;7202;50.718;7.072;2022-07-09T15:06:12;11.48;;;10.15;;
14235;SDS011;7202;50.718;7.072;2022-07-09T15:08:41;13.63;;;12.32;;
14235;SDS011;7202;50.718;7.072;2022-07-09T15:11:11;17.10;;;15.30;;
14235;SDS011;7202;50.718;7.072;2022-07-09T15:13:39;14.43;;;13.05;;
14235;SDS011;7202;50.718;7.072;2022-07-09T15:16:08;14.25;;;12.90;;